Time;durP1;ratioP1;P1;durP2;ratioP2;P2;SDS_P1;SDS_P2;PMS_P1;PMS_P2;Temp;Humidity;BMP_temperature;BMP_pressure;BME280_temperature;BME280_humidity;BME280_pressure;Samples;Min_cycle;Max_cycle;Signal;HPM_P1;HPM_P2
2023/01/03 00:00:51;;;;;;;7.90;3.33;;;9.70;1.00;;;;;;6232529;23;20979;-86
2023/01/03 00:03:17;;;;;;;2.30;2.10;;;9.60;1.00;;;;;;6232747;23;20409;-86
2023/01/03 00:05:44;;;;;;;3.10;2.10;;;9.60;1.00;;;;;;6224678;23;20437;-86
2023/01/03 00:08:11;;;;;;;3.47;2.40;;;9.90;85.80;;;;;;6225649;23;20509;-87
2023/01/03 00:10:38;;;;;;;2.37;2.27;;;9.60;1.00;;;;;;6225248;23;20403;-86
2023/01/03 00:13:06;;;;;;;1.90;1.80;;;9.60;1.00;;;;;;6223968;23;20415;-85
2023/01/03 00:15:34;;;;;;;3.60;2.40;;;9.60;1.00;;;;;;6224312;23;20396;-85
2023/01/03 00:18:01;;;;;;;5.83;2.53;;;9.60;1.00;;;;;;6223656;23;20463;-86
2023/01/03 00:20:28;;;;;;;2.83;2.10;;;9.60;1.00;;;;;;6224387;23;20464;-87
2023/01/03 00:22:55;;;;;;;4.00;2.53;;;9.60;1.00;;;;;;6224834;23;20471;-86
2023/01/03 00:25:22;;;;;;;3.10;2.60;;;9.20;99.90;;;;;;6232742;23;20509;-86
2023/01/03 00:27:49;;;;;;;2.57;2.37;;;9.50;1.00;;;;;;6223054;23;20470;-85
2023/01/03 00:30:17;;;;;;;2.97;2.70;;;9.50;12.20;;;;;;6223043;23;20403;-86
2023/01/03 00:32:44;;;;;;;2.50;2.30;;;9.60;1.00;;;;;;6222976;23;20407;-85
2023/01/03 00:35:11;;;;;;;6.03;2.30;;;9.60;1.00;;;;;;6223102;23;20485;-86
2023/01/03 00:37:38;;;;;;;2.60;2.40;;;9.60;1.00;;;;;;6223983;23;20505;-86
2023/01/03 00:40:05;;;;;;;2.60;2.40;;;9.60;1.00;;;;;;6223223;23;20493;-87
2023/01/03 00:43:27;;;;;;;5.00;2.50;;;9.60;1.00;;;;;;6223721;23;20874;-86
2023/01/03 00:45:21;;;;;;;2.30;2.20;;;9.70;1.00;;;;;;6223667;23;20429;-85
2023/01/03 00:47:48;;;;;;;2.30;2.10;;;9.70;99.90;;;;;;6224181;23;20960;-86
2023/01/03 00:50:15;;;;;;;3.93;2.50;;;9.60;99.90;;;;;;6225508;23;20413;-85
2023/01/03 00:52:41;;;;;;;4.40;2.37;;;9.60;99.90;;;;;;6229257;23;20440;-87
2023/01/03 00:55:09;;;;;;;3.50;2.40;;;9.60;99.90;;;;;;6226481;23;20437;-86
2023/01/03 00:57:36;;;;;;;7.27;2.30;;;9.60;99.90;;;;;;6224028;23;20918;-87
2023/01/03 01:00:04;;;;;;;4.60;2.37;;;9.60;1.00;;;;;;6225423;23;20387;-87
2023/01/03 01:02:32;;;;;;;3.50;1.80;;;9.60;99.90;;;;;;6224461;23;20384;-86
2023/01/03 01:04:59;;;;;;;3.67;2.10;;;9.60;99.90;;;;;;6235738;23;20390;-86
2023/01/03 01:07:26;;;;;;;3.00;2.50;;;9.60;99.90;;;;;;6239551;23;20401;-85
2023/01/03 01:09:53;;;;;;;4.20;1.87;;;9.90;1.00;;;;;;6239946;23;20378;-86
2023/01/03 01:12:20;;;;;;;3.33;2.47;;;9.50;99.90;;;;;;6240106;23;20413;-84
2023/01/03 01:14:46;;;;;;;3.17;2.40;;;9.80;1.00;;;;;;6235909;23;20955;-86
2023/01/03 01:17:13;;;;;;;6.50;2.83;;;9.60;99.90;;;;;;6226139;23;20408;-86
2023/01/03 01:19:43;;;;;;;1.87;1.73;;;9.50;99.90;;;;;;6227154;23;20438;-87
2023/01/03 01:22:12;;;;;;;2.27;2.13;;;9.40;1.00;;;;;;6224125;23;20485;-87
2023/01/03 01:24:39;;;;;;;4.67;2.50;;;9.50;1.00;;;;;;6226136;23;20433;-86
2023/01/03 01:27:06;;;;;;;4.30;2.40;;;9.20;1.00;;;;;;6225698;23;20461;-86
2023/01/03 01:29:33;;;;;;;3.33;2.63;;;9.20;99.90;;;;;;6233197;23;20373;-86
2023/01/03 01:32:00;;;;;;;2.50;2.00;;;;;;;;;;6242015;23;20377;-86
2023/01/03 01:34:27;;;;;;;2.83;2.20;;;9.10;99.90;;;;;;6242504;23;20405;-86
2023/01/03 01:36:55;;;;;;;4.60;2.40;;;9.00;99.90;;;;;;6231006;23;20385;-86
2023/01/03 01:39:25;;;;;;;2.93;1.87;;;9.00;99.90;;;;;;6224444;23;20411;-86
2023/01/03 01:44:53;;;;;;;4.23;1.97;;;8.90;99.90;;;;;;6243695;23;20361;-85
2023/01/03 01:47:33;;;;;;;4.03;2.00;;;9.00;99.90;;;;;;6229059;23;20434;-85
2023/01/03 01:50:06;;;;;;;1.97;1.87;;;8.90;99.90;;;;;;6225544;23;20470;-86
2023/01/03 01:52:39;;;;;;;2.33;2.13;;;8.80;91.60;;;;;;6225032;23;20387;-85
2023/01/03 01:55:11;;;;;;;2.50;2.30;;;8.80;1.00;;;;;;6236976;23;20405;-86
2023/01/03 01:57:40;;;;;;;2.80;2.37;;;9.10;99.90;;;;;;6226700;23;20435;-86
2023/01/03 02:00:09;;;;;;;6.00;2.10;;;8.80;1.00;;;;;;6227289;23;20440;-86
2023/01/03 02:02:35;;;;;;;3.50;1.70;;;8.70;1.00;;;;;;6227832;23;20469;-86
2023/01/03 02:05:08;;;;;;;1.93;1.83;;;8.50;51.60;;;;;;6228728;23;20402;-86
2023/01/03 02:07:37;;;;;;;3.53;2.07;;;8.60;99.90;;;;;;6227984;23;20405;-86
2023/01/03 02:10:06;;;;;;;3.90;1.63;;;8.60;21.30;;;;;;6227466;23;20406;-86
2023/01/03 02:15:37;;;;;;;2.70;1.60;;;8.60;1.00;;;;;;6230831;23;20749;-86
2023/01/03 02:18:17;;;;;;;3.13;1.80;;;8.50;1.00;;;;;;6227473;23;20407;-85
2023/01/03 02:21:15;;;;;;;3.33;1.73;;;8.50;99.90;;;;;;6224750;23;20394;-85
2023/01/03 02:24:16;;;;;;;2.50;1.90;;;8.40;99.90;;;;;;6224807;23;20397;-84
2023/01/03 02:26:56;;;;;;;6.10;1.70;;;9.00;99.90;;;;;;6225629;23;20386;-85
2023/01/03 02:29:55;;;;;;;1.70;1.60;;;8.40;1.00;;;;;;6246195;22;20432;-81
2023/01/03 02:32:33;;;;;;;4.80;2.50;;;8.30;1.00;;;;;;6250857;22;20419;-81
2023/01/03 02:35:07;;;;;;;1.93;1.60;;;8.30;1.00;;;;;;6257181;22;20721;-81
2023/01/03 02:37:40;;;;;;;2.40;1.70;;;8.20;1.00;;;;;;6249802;22;20415;-81
2023/01/03 02:40:13;;;;;;;3.20;1.80;;;8.20;1.00;;;;;;6222388;23;20368;-82
2023/01/03 02:43:01;;;;;;;3.00;2.80;;;8.20;1.00;;;;;;6222552;23;20473;-81
2023/01/03 02:45:45;;;;;;;1.90;1.80;;;8.20;1.00;;;;;;6221960;23;20361;-81
2023/01/03 02:48:19;;;;;;;1.97;1.77;;;8.20;1.00;;;;;;6220821;23;20400;-82
2023/01/03 02:50:49;;;;;;;2.80;1.80;;;8.10;1.00;;;;;;6222207;23;20399;-82
2023/01/03 02:53:21;;;;;;;2.40;2.20;;;8.10;1.00;;;;;;6224452;23;20402;-80
2023/01/03 02:55:51;;;;;;;1.70;1.60;;;8.10;1.00;;;;;;6222518;23;20510;-81
2023/01/03 02:58:22;;;;;;;1.90;1.73;;;8.10;1.00;;;;;;6224712;23;20482;-81
2023/01/03 03:00:54;;;;;;;1.60;1.50;;;8.00;1.00;;;;;;6221861;23;20712;-81
2023/01/03 03:03:26;;;;;;;1.50;1.40;;;8.00;99.90;;;;;;6221541;23;20394;-81
2023/01/03 03:05:57;;;;;;;2.95;2.03;;;7.90;1.00;;;;;;6221708;23;20448;-81
2023/01/03 03:08:24;;;;;;;2.00;1.80;;;7.90;1.00;;;;;;6236949;23;20234;-80
2023/01/03 03:13:41;;;;;;;3.03;1.60;;;7.70;1.00;;;;;;6222213;23;20190;-81
2023/01/03 03:16:16;;;;;;;3.73;2.30;;;7.70;1.00;;;;;;6221961;23;20199;-81
2023/01/03 03:18:50;;;;;;;2.72;2.53;;;7.70;1.00;;;;;;6221689;23;20422;-81
2023/01/03 03:26:58;;;;;;;5.47;1.90;;;7.50;44.60;;;;;;6236470;23;20201;-81
2023/01/03 03:29:27;;;;;;;2.90;1.90;;;7.60;99.90;;;;;;6235596;23;20470;-81
2023/01/03 03:31:54;;;;;;;2.93;2.10;;;7.50;99.90;;;;;;6236957;23;20390;-81
2023/01/03 03:34:26;;;;;;;2.88;2.20;;;7.50;99.90;;;;;;6233197;23;20466;-81
2023/01/03 03:36:56;;;;;;;2.63;2.00;;;7.40;99.90;;;;;;6235715;23;20182;-81
2023/01/03 03:45:13;;;;;;;2.45;2.00;;;7.30;1.00;;;;;;6237745;23;20178;-80
2023/01/03 03:47:47;;;;;;;2.22;2.03;;;7.60;1.00;;;;;;6237828;23;20230;-80
2023/01/03 03:50:23;;;;;;;2.80;1.95;;;7.20;1.00;;;;;;6235727;23;20186;-81
2023/01/03 03:52:54;;;;;;;1.92;1.83;;;7.20;1.00;;;;;;6235691;23;20198;-81
2023/01/03 03:55:25;;;;;;;2.83;2.63;;;7.20;1.00;;;;;;6235220;23;20567;-80
2023/01/03 03:57:57;;;;;;;3.55;2.10;;;7.20;13.60;;;;;;6235099;23;20249;-82
2023/01/03 04:00:29;;;;;;;4.05;1.90;;;7.10;99.90;;;;;;6224832;23;20215;-82
2023/01/03 04:02:58;;;;;;;2.15;1.90;;;7.10;1.00;;;;;;6223559;23;20247;-81
2023/01/03 04:05:29;;;;;;;8.20;2.35;;;7.00;1.00;;;;;;6222394;23;20532;-82
2023/01/03 04:07:56;;;;;;;3.13;2.33;;;7.00;38.10;;;;;;6221135;23;20249;-82
2023/01/03 04:10:24;;;;;;;3.05;2.42;;;6.90;1.00;;;;;;6221455;23;20254;-81
2023/01/03 04:12:51;;;;;;;5.03;2.40;;;6.90;92.40;;;;;;6220403;23;20175;-81
2023/01/03 04:15:19;;;;;;;3.70;2.22;;;6.80;99.90;;;;;;6220600;23;20218;-82
2023/01/03 04:17:46;;;;;;;2.00;1.90;;;6.80;99.90;;;;;;6220459;23;20195;-81
2023/01/03 04:20:13;;;;;;;3.75;3.08;;;6.80;99.90;;;;;;6219912;23;20171;-81
2023/01/03 04:22:42;;;;;;;2.47;1.92;;;6.80;99.90;;;;;;6221166;23;20203;-81
2023/01/03 04:25:09;;;;;;;2.80;2.08;;;6.70;99.90;;;;;;6221972;23;20221;-80
2023/01/03 04:27:36;;;;;;;2.75;2.00;;;6.80;1.00;;;;;;6229758;23;20286;-81
2023/01/03 04:30:03;;;;;;;2.90;2.40;;;6.70;99.90;;;;;;6237564;23;20231;-80
2023/01/03 04:32:30;;;;;;;2.17;2.00;;;6.70;99.90;;;;;;6235548;23;20186;-80
2023/01/03 04:34:57;;;;;;;5.20;2.42;;;6.70;1.00;;;;;;6225305;23;20188;-81
2023/01/03 04:37:24;;;;;;;2.50;2.05;;;6.60;99.90;;;;;;6221700;23;20207;-81
2023/01/03 04:39:52;;;;;;;3.47;3.00;;;6.70;99.50;;;;;;6220925;23;20258;-80
2023/01/03 04:45:04;;;;;;;2.25;2.05;;;6.70;1.00;;;;;;6220722;23;20539;-80
2023/01/03 04:47:30;;;;;;;8.40;2.92;;;6.50;1.00;;;;;;6221148;23;20210;-80
2023/01/03 04:49:57;;;;;;;2.42;2.30;;;6.70;1.00;;;;;;6223182;23;20219;-81
2023/01/03 04:52:24;;;;;;;2.97;2.00;;;6.70;1.00;;;;;;6229657;23;20258;-80
2023/01/03 04:54:52;;;;;;;5.75;3.85;;;6.70;1.00;;;;;;6228043;23;20226;-81
2023/01/03 04:57:19;;;;;;;7.45;2.60;;;6.80;1.00;;;;;;6225501;23;20175;-80
2023/01/03 04:59:46;;;;;;;3.70;2.67;;;6.70;1.00;;;;;;6225260;23;20186;-81
2023/01/03 05:02:12;;;;;;;5.70;2.88;;;6.70;1.00;;;;;;6226327;23;20258;-80
2023/01/03 05:04:39;;;;;;;3.10;2.60;;;6.70;1.00;;;;;;6224871;23;20231;-80
2023/01/03 05:07:06;;;;;;;6.85;3.30;;;6.60;1.00;;;;;;6223455;23;20202;-81
2023/01/03 05:09:33;;;;;;;7.13;2.75;;;6.50;53.70;;;;;;6222929;23;20587;-81
2023/01/03 05:12:01;;;;;;;5.43;3.20;;;6.50;99.90;;;;;;6223827;23;20203;-80
2023/01/03 05:14:28;;;;;;;2.63;2.53;;;6.50;99.90;;;;;;6232319;23;20218;-81
2023/01/03 05:16:54;;;;;;;2.83;2.45;;;6.40;99.90;;;;;;6236171;23;20195;-80
2023/01/03 05:19:21;;;;;;;3.65;2.92;;;6.40;1.00;;;;;;6241775;23;20269;-80
2023/01/03 05:27:33;;;;;;;5.50;2.75;;;6.80;99.90;;;;;;6169647;23;20203;-81
2023/01/03 05:30:01;;;;;;;4.40;3.10;;;6.30;1.00;;;;;;6211521;23;20206;-80
2023/01/03 05:32:28;;;;;;;4.55;2.70;;;6.30;1.00;;;;;;6236850;23;20190;-80
2023/01/03 05:34:54;;;;;;;4.43;3.10;;;6.20;30.20;;;;;;6236520;23;20206;-80
2023/01/03 05:37:23;;;;;;;4.47;2.88;;;6.40;1.00;;;;;;6237413;23;20474;-81
2023/01/03 05:39:50;;;;;;;3.90;3.10;;;6.20;99.90;;;;;;6226706;23;20176;-81
2023/01/03 05:42:17;;;;;;;3.40;2.55;;;6.20;99.90;;;;;;6221536;23;20183;-80
2023/01/03 05:44:45;;;;;;;3.63;3.00;;;6.20;99.90;;;;;;6220564;23;20217;-82
2023/01/03 05:47:12;;;;;;;4.70;2.75;;;6.20;99.90;;;;;;6220191;23;20185;-82
2023/01/03 05:49:39;;;;;;;4.43;3.50;;;6.20;99.90;;;;;;6219560;23;20199;-81
2023/01/03 05:52:05;;;;;;;7.90;3.47;;;6.10;99.90;;;;;;6220231;23;20548;-81
2023/01/03 05:54:32;;;;;;;5.20;2.65;;;6.20;99.90;;;;;;6220037;23;20214;-82
2023/01/03 05:56:59;;;;;;;2.72;2.30;;;6.20;99.90;;;;;;6219792;23;20709;-81
2023/01/03 05:59:26;;;;;;;5.72;3.10;;;6.20;99.90;;;;;;6220232;23;20274;-81
2023/01/03 06:01:54;;;;;;;3.33;2.50;;;6.20;99.90;;;;;;6220181;23;20218;-81
2023/01/03 06:04:21;;;;;;;3.15;2.85;;;6.50;99.90;;;;;;6219639;23;20179;-81
2023/01/03 06:06:48;;;;;;;6.97;2.78;;;6.10;99.90;;;;;;6221661;23;20182;-81
2023/01/03 06:09:15;;;;;;;6.28;2.50;;;6.50;99.90;;;;;;6220824;23;20294;-82
2023/01/03 06:11:42;;;;;;;7.30;3.90;;;6.20;99.90;;;;;;6223676;23;20175;-81
2023/01/03 06:14:09;;;;;;;4.18;3.78;;;6.10;99.90;;;;;;6223697;23;20206;-81
2023/01/03 06:19:21;;;;;;;9.52;3.42;;;6.00;93.80;;;;;;6222893;23;20206;-81
2023/01/03 06:21:48;;;;;;;7.30;2.80;;;6.00;99.90;;;;;;6237744;23;20183;-80
2023/01/03 06:24:15;;;;;;;3.70;2.92;;;5.90;99.90;;;;;;6239983;23;20187;-80
2023/01/03 06:26:42;;;;;;;3.40;2.45;;;6.00;99.90;;;;;;6223867;23;20656;-81
2023/01/03 06:29:08;;;;;;;5.88;4.07;;;6.00;1.00;;;;;;6222175;23;20209;-81
2023/01/03 06:31:35;;;;;;;2.40;2.20;;;5.90;64.80;;;;;;6220929;23;20175;-81
2023/01/03 06:34:03;;;;;;;2.95;2.45;;;6.00;1.00;;;;;;6220583;23;20198;-81
2023/01/03 06:36:33;;;;;;;6.35;2.90;;;6.00;1.00;;;;;;6218940;23;20234;-81
2023/01/03 06:39:00;;;;;;;2.75;2.55;;;5.90;1.00;;;;;;6219609;23;20704;-81
2023/01/03 06:41:27;;;;;;;3.72;2.65;;;5.90;1.00;;;;;;6220327;23;20175;-81
2023/01/03 06:43:54;;;;;;;2.78;2.20;;;5.90;1.00;;;;;;6222833;23;20199;-81
2023/01/03 06:54:37;;;;;;;4.15;2.83;;;5.90;99.90;;;;;;6223690;23;20242;-81
2023/01/03 06:57:05;;;;;;;3.25;2.85;;;5.80;99.90;;;;;;6231272;23;20195;-80
2023/01/03 06:59:32;;;;;;;6.43;3.50;;;5.80;99.90;;;;;;6244357;23;20190;-80
2023/01/03 07:01:59;;;;;;;8.30;3.40;;;5.80;99.90;;;;;;6244552;23;20156;-80
2023/01/03 07:04:26;;;;;;;5.25;3.78;;;5.60;1.00;;;;;;6244515;23;20222;-79
2023/01/03 07:06:55;;;;;;;8.90;4.13;;;5.80;99.90;;;;;;6227795;23;20258;-82
2023/01/03 07:09:23;;;;;;;4.28;3.42;;;5.70;99.90;;;;;;6222363;23;20197;-80
2023/01/03 07:11:49;;;;;;;6.55;3.35;;;5.70;99.90;;;;;;6230325;23;20190;-80
2023/01/03 07:14:17;;;;;;;8.55;4.18;;;5.70;99.90;;;;;;6232670;23;20206;-80
2023/01/03 07:16:46;;;;;;;10.68;4.13;;;5.80;1.00;;;;;;6219188;23;20236;-81
2023/01/03 07:19:15;;;;;;;8.35;4.07;;;5.80;1.00;;;;;;6218913;23;20234;-81
2023/01/03 07:21:42;;;;;;;5.75;3.70;;;5.80;99.90;;;;;;6219581;23;20254;-81
2023/01/03 07:24:13;;;;;;;10.30;4.05;;;5.80;1.00;;;;;;6219944;23;20293;-82
2023/01/03 07:26:40;;;;;;;5.53;3.60;;;5.80;1.00;;;;;;6219685;23;20156;-82
2023/01/03 07:29:09;;;;;;;6.35;4.07;;;5.70;1.00;;;;;;6219021;23;20697;-80
2023/01/03 07:31:39;;;;;;;4.65;4.15;;;5.70;1.00;;;;;;6218711;23;20549;-80
2023/01/03 07:34:06;;;;;;;5.50;3.85;;;5.70;1.00;;;;;;6220074;23;20244;-80
2023/01/03 07:36:33;;;;;;;8.30;4.28;;;5.70;1.00;;;;;;6219082;23;20234;-81
2023/01/03 07:38:59;;;;;;;5.60;4.05;;;5.60;1.00;;;;;;6219727;23;20196;-80
2023/01/03 07:44:08;;;;;;;4.07;3.58;;;5.60;1.00;;;;;;6227036;23;20225;-82
2023/01/03 07:46:35;;;;;;;7.43;4.32;;;5.60;1.00;;;;;;6221999;23;20265;-81
2023/01/03 07:49:02;;;;;;;5.95;4.68;;;5.30;1.00;;;;;;6220085;23;20719;-81
2023/01/03 07:51:29;;;;;;;5.45;3.63;;;5.60;1.00;;;;;;6221217;23;20175;-82
2023/01/03 07:53:56;;;;;;;4.65;4.10;;;5.60;1.00;;;;;;6219048;23;20207;-82
2023/01/03 07:56:24;;;;;;;7.10;4.50;;;5.60;1.00;;;;;;6220016;23;20274;-81
2023/01/03 07:58:52;;;;;;;6.93;4.70;;;5.70;1.00;;;;;;6221435;23;20757;-81
2023/01/03 08:01:20;;;;;;;8.88;4.45;;;5.70;1.00;;;;;;6221484;23;20236;-81
2023/01/03 08:03:47;;;;;;;4.35;3.75;;;5.70;1.00;;;;;;6224327;23;20243;-81
2023/01/03 08:06:16;;;;;;;7.93;4.30;;;5.70;1.00;;;;;;6220875;23;20507;-81
2023/01/03 08:08:44;;;;;;;7.65;4.40;;;5.70;1.00;;;;;;6220576;23;20291;-81
2023/01/03 08:13:58;;;;;;;9.90;4.57;;;5.70;1.00;;;;;;6221082;23;20163;-81
2023/01/03 08:16:25;;;;;;;6.97;4.45;;;5.80;1.00;;;;;;6220342;23;20274;-81
2023/01/03 08:18:52;;;;;;;7.57;4.50;;;5.80;1.00;;;;;;6230272;23;20251;-81
2023/01/03 08:21:19;;;;;;;6.68;4.47;;;5.90;99.90;;;;;;6240453;23;20190;-80
2023/01/03 08:23:47;;;;;;;5.85;3.47;;;5.90;99.90;;;;;;6240337;23;20179;-80
2023/01/03 08:26:15;;;;;;;5.43;4.88;;;5.90;99.90;;;;;;6240854;23;20201;-81
2023/01/03 08:28:43;;;;;;;10.10;4.50;;;6.00;1.00;;;;;;6247391;22;20206;-86
2023/01/03 08:31:16;;;;;;;5.60;4.20;;;6.00;99.90;;;;;;6263917;23;20230;-85
2023/01/03 08:33:47;;;;;;;4.47;4.07;;;6.30;99.90;;;;;;6264624;23;20167;-85
2023/01/03 08:36:15;;;;;;;10.35;4.57;;;6.00;39.10;;;;;;6268891;23;20557;-86
2023/01/03 08:38:45;;;;;;;7.35;4.38;;;6.00;42.40;;;;;;6255080;23;20179;-86
2023/01/03 08:41:16;;;;;;;5.90;4.63;;;6.00;1.00;;;;;;6238060;23;20214;-86
2023/01/03 08:43:45;;;;;;;4.43;3.75;;;6.00;1.00;;;;;;6239219;23;20219;-86
2023/01/03 08:46:16;;;;;;;5.63;3.80;;;5.90;1.00;;;;;;6237953;23;20231;-86
2023/01/03 08:48:43;;;;;;;5.82;2.95;;;6.00;4.30;;;;;;6236355;23;20230;-85
2023/01/03 08:51:11;;;;;;;6.43;4.55;;;6.00;14.10;;;;;;6237450;23;20203;-86
2023/01/03 08:53:38;;;;;;;7.75;4.95;;;6.00;1.00;;;;;;6234563;23;20213;-86
2023/01/03 08:56:06;;;;;;;5.18;4.40;;;6.00;99.90;;;;;;6240726;23;20179;-86
2023/01/03 08:58:32;;;;;;;9.65;5.55;;;6.10;15.80;;;;;;6243840;23;20221;-85
2023/01/03 09:01:01;;;;;;;5.45;4.80;;;6.20;1.00;;;;;;6244167;23;20167;-86
2023/01/03 09:03:29;;;;;;;5.85;4.97;;;6.20;1.00;;;;;;6237800;23;20179;-85
2023/01/03 09:06:00;;;;;;;8.25;4.85;;;6.20;1.00;;;;;;6233845;23;20282;-86
2023/01/03 09:08:30;;;;;;;9.55;4.40;;;6.20;99.90;;;;;;6233311;23;20256;-88
2023/01/03 09:10:57;;;;;;;4.40;3.30;;;6.20;99.90;;;;;;6233320;23;20206;-84
2023/01/03 09:13:26;;;;;;;6.75;4.40;;;6.20;99.90;;;;;;6237078;23;20174;-84
2023/01/03 09:16:00;;;;;;;7.75;3.80;;;6.20;99.90;;;;;;6236736;23;20179;-84
2023/01/03 09:18:29;;;;;;;8.52;4.43;;;6.20;99.90;;;;;;6234520;23;20199;-85
2023/01/03 09:20:56;;;;;;;6.55;3.78;;;6.40;1.00;;;;;;6234530;23;20224;-87
2023/01/03 09:23:22;;;;;;;4.10;3.75;;;6.40;1.00;;;;;;6238822;23;20163;-84
2023/01/03 09:25:49;;;;;;;3.97;3.20;;;6.40;99.90;;;;;;6243644;23;20194;-84
2023/01/03 09:28:16;;;;;;;6.00;3.70;;;6.40;99.90;;;;;;6241659;23;20203;-86
2023/01/03 09:30:43;;;;;;;5.47;3.40;;;6.40;1.00;;;;;;6235073;23;20167;-86
2023/01/03 09:33:10;;;;;;;9.32;4.55;;;6.40;99.90;;;;;;6235955;23;20179;-86
2023/01/03 09:35:38;;;;;;;7.35;3.75;;;6.40;99.90;;;;;;6235308;23;20186;-84
2023/01/03 09:38:05;;;;;;;5.72;3.35;;;6.70;99.90;;;;;;6234389;23;20222;-87
2023/01/03 09:40:38;;;;;;;6.45;3.60;;;6.50;1.00;;;;;;6232690;23;20209;-85
2023/01/03 09:43:13;;;;;;;5.00;3.17;;;6.60;1.00;;;;;;6232736;23;20163;-86
2023/01/03 09:45:43;;;;;;;3.65;2.80;;;6.60;1.00;;;;;;6233548;23;20163;-86
2023/01/03 09:48:14;;;;;;;5.32;3.75;;;6.60;99.90;;;;;;6233333;23;20207;-86
2023/01/03 09:50:44;;;;;;;7.13;3.05;;;6.80;19.70;;;;;;6239310;23;20164;-86
2023/01/03 10:05:04;;;;;;;4.05;3.25;;;6.80;1.00;;;;;;6237992;23;20167;-86
2023/01/03 10:07:49;;;;;;;5.63;3.35;;;6.70;5.50;;;;;;6234862;23;20470;-86
2023/01/03 10:10:23;;;;;;;7.13;3.03;;;6.80;99.90;;;;;;6233209;23;20480;-86
2023/01/03 10:13:01;;;;;;;3.80;2.83;;;6.90;1.00;;;;;;6236192;23;20193;-86
2023/01/03 10:15:39;;;;;;;6.32;3.00;;;7.10;1.00;;;;;;6235255;23;20223;-86
2023/01/03 10:18:17;;;;;;;5.40;3.30;;;7.00;1.00;;;;;;6235967;23;20222;-87
2023/01/03 10:20:48;;;;;;;15.75;3.53;;;6.90;1.00;;;;;;6235428;23;20167;-87
2023/01/03 10:23:18;;;;;;;6.85;3.10;;;7.00;1.00;;;;;;6236695;23;20152;-86
2023/01/03 10:25:47;;;;;;;5.40;3.20;;;7.00;99.90;;;;;;6238645;23;20186;-86
2023/01/03 10:28:18;;;;;;;10.13;3.30;;;7.00;99.90;;;;;;6238755;23;20200;-86
2023/01/03 10:31:19;;;;;;;4.05;3.60;;;7.10;1.00;;;;;;6237462;23;20163;-85
2023/01/03 10:33:47;;;;;;;3.08;2.80;;;7.10;1.00;;;;;;6235124;23;20220;-85
2023/01/03 10:36:16;;;;;;;6.80;3.85;;;7.40;1.00;;;;;;6228045;23;20179;-84
2023/01/03 10:38:44;;;;;;;5.97;4.07;;;7.40;99.90;;;;;;6227771;23;20199;-86
2023/01/03 10:41:16;;;;;;;3.55;3.17;;;7.50;99.90;;;;;;6228381;23;20179;-86
2023/01/03 10:43:45;;;;;;;5.82;3.28;;;7.40;99.90;;;;;;6228674;23;20188;-86
2023/01/03 10:46:16;;;;;;;5.30;4.80;;;7.50;99.90;;;;;;6231523;23;20211;-86
2023/01/03 10:48:47;;;;;;;8.07;4.10;;;7.50;99.90;;;;;;6235402;23;20751;-86
2023/01/03 10:51:26;;;;;;;7.40;4.40;;;7.50;1.00;;;;;;6234381;23;20170;-86
2023/01/03 10:53:56;;;;;;;5.10;3.65;;;7.50;1.00;;;;;;6234068;23;20254;-86
2023/01/03 10:56:24;;;;;;;8.73;4.55;;;7.50;1.00;;;;;;6234967;23;20166;-86
2023/01/03 10:59:10;;;;;;;10.07;4.50;;;7.70;1.00;;;;;;6245262;23;20211;-85
2023/01/03 11:01:37;;;;;;;8.10;5.28;;;7.70;99.90;;;;;;6244322;23;20166;-86
2023/01/03 11:04:14;;;;;;;4.85;4.03;;;7.30;1.00;;;;;;6231438;23;20257;-85
2023/01/03 11:06:58;;;;;;;6.40;4.10;;;7.30;60.90;;;;;;6233071;23;20194;-86
2023/01/03 11:09:28;;;;;;;7.80;4.22;;;7.20;99.90;;;;;;6234121;23;20464;-86
2023/01/03 11:12:02;;;;;;;6.20;5.22;;;7.30;99.90;;;;;;6234357;23;20195;-86
2023/01/03 11:14:30;;;;;;;6.00;3.95;;;7.40;99.90;;;;;;6235276;23;20167;-86
2023/01/03 11:17:00;;;;;;;11.07;5.82;;;7.30;99.90;;;;;;6235978;23;20182;-86
2023/01/03 11:19:28;;;;;;;10.95;5.60;;;7.40;99.90;;;;;;6235765;23;20194;-86
2023/01/03 11:22:06;;;;;;;10.38;5.25;;;7.50;99.90;;;;;;6235090;23;20203;-84
2023/01/03 11:25:03;;;;;;;7.00;5.82;;;7.80;1.00;;;;;;6231792;23;20552;-87
2023/01/03 11:28:03;;;;;;;7.20;4.85;;;7.80;1.00;;;;;;6232324;23;20184;-84
2023/01/03 11:30:37;;;;;;;12.10;5.57;;;7.60;99.90;;;;;;6233590;23;20163;-88
2023/01/03 11:33:21;;;;;;;8.37;5.67;;;7.40;99.90;;;;;;6234613;23;20168;-87
2023/01/03 11:35:58;;;;;;;9.23;5.78;;;7.60;1.00;;;;;;6235817;23;20410;-86
2023/01/03 11:38:46;;;;;;;6.03;5.37;;;7.70;1.00;;;;;;6238884;23;20202;-86
2023/01/03 11:41:29;;;;;;;8.98;5.55;;;7.80;1.00;;;;;;6244386;23;20369;-87
2023/01/03 11:44:19;;;;;;;7.78;5.68;;;7.70;99.90;;;;;;6242742;23;20167;-86
2023/01/03 11:47:01;;;;;;;7.82;5.65;;;7.80;1.00;;;;;;6230387;23;20230;-87
2023/01/03 11:49:40;;;;;;;4.88;4.55;;;7.60;1.00;;;;;;6235309;23;20199;-86
2023/01/03 11:52:22;;;;;;;6.95;5.28;;;7.70;1.00;;;;;;6238531;23;20156;-84
2023/01/03 11:55:27;;;;;;;8.07;5.53;;;7.70;1.00;;;;;;6238187;23;20171;-85
2023/01/03 11:58:06;;;;;;;5.78;4.32;;;7.40;65.90;;;;;;6237191;23;20167;-87
2023/01/03 12:00:36;;;;;;;6.10;5.50;;;7.60;1.00;;;;;;6236276;23;20163;-87
2023/01/03 12:03:08;;;;;;;7.28;5.50;;;7.60;1.00;;;;;;6235006;23;20195;-87
2023/01/03 12:05:48;;;;;;;8.23;4.67;;;7.40;16.70;;;;;;6235307;23;20156;-87
2023/01/03 12:08:34;;;;;;;7.80;5.40;;;7.60;1.00;;;;;;6233037;23;20529;-87
2023/01/03 12:11:10;;;;;;;11.50;5.40;;;7.40;99.90;;;;;;6233135;23;20199;-84
2023/01/03 12:13:45;;;;;;;5.13;4.63;;;7.40;1.00;;;;;;6232908;23;20163;-86
2023/01/03 12:16:17;;;;;;;7.13;4.80;;;7.40;1.00;;;;;;6233118;23;20163;-86
2023/01/03 12:18:53;;;;;;;5.43;4.57;;;7.90;99.90;;;;;;6232486;23;20196;-87
2023/01/03 12:21:29;;;;;;;5.63;5.00;;;7.50;1.00;;;;;;6234632;23;20177;-87
2023/01/03 12:24:01;;;;;;;13.63;5.83;;;7.60;99.90;;;;;;6235910;23;20362;-86
2023/01/03 12:26:29;;;;;;;6.40;5.00;;;7.40;1.00;;;;;;6235097;23;20400;-87
2023/01/03 12:29:04;;;;;;;12.63;6.05;;;7.50;1.00;;;;;;6233355;23;20470;-87
2023/01/03 12:31:35;;;;;;;5.75;5.25;;;7.50;1.00;;;;;;6235244;23;20187;-86
2023/01/03 12:34:16;;;;;;;6.17;5.17;;;7.60;99.90;;;;;;6233102;23;20676;-86
2023/01/03 12:36:51;;;;;;;10.07;4.47;;;7.70;1.00;;;;;;6235320;23;20378;-86
2023/01/03 12:39:48;;;;;;;13.03;5.23;;;7.50;1.00;;;;;;6235237;23;20449;-85
2023/01/03 12:42:23;;;;;;;5.50;4.77;;;7.70;1.00;;;;;;6160747;23;20390;-86
2023/01/03 12:44:59;;;;;;;9.15;5.40;;;7.50;99.90;;;;;;6243997;23;20365;-86
2023/01/03 12:47:30;;;;;;;6.23;5.60;;;7.50;99.90;;;;;;6238774;23;20187;-86
2023/01/03 12:50:05;;;;;;;4.47;4.07;;;7.80;99.90;;;;;;6234125;23;20921;-86
2023/01/03 12:52:33;;;;;;;8.02;4.50;;;7.70;99.90;;;;;;6235439;23;20410;-86
2023/01/03 12:55:07;;;;;;;9.13;5.70;;;7.50;99.90;;;;;;6241728;23;20179;-87
2023/01/03 12:57:59;;;;;;;5.97;4.80;;;7.50;99.90;;;;;;6244071;23;20186;-86
2023/01/03 13:00:39;;;;;;;9.90;5.23;;;7.50;99.90;;;;;;6227685;23;20394;-86
2023/01/03 13:03:15;;;;;;;7.07;5.37;;;7.50;99.90;;;;;;6244264;23;20350;-86
2023/01/03 13:05:46;;;;;;;8.82;5.43;;;7.40;99.90;;;;;;6243388;23;20357;-86
2023/01/03 13:08:20;;;;;;;6.00;4.90;;;7.50;99.90;;;;;;6241560;23;20203;-86
2023/01/03 13:10:51;;;;;;;4.95;4.50;;;7.60;99.90;;;;;;6238392;23;20162;-87
2023/01/03 13:13:20;;;;;;;7.68;4.40;;;7.70;99.90;;;;;;6236793;23;20187;-87
2023/01/03 13:15:48;;;;;;;7.10;4.78;;;7.70;99.90;;;;;;6235711;23;20267;-87
2023/01/03 13:18:31;;;;;;;4.95;4.45;;;7.70;99.90;;;;;;6236178;23;20557;-87
2023/01/03 13:20:58;;;;;;;5.05;4.55;;;7.70;99.90;;;;;;6234265;23;20243;-87
2023/01/03 13:23:36;;;;;;;9.38;4.97;;;7.60;98.00;;;;;;6224742;23;20254;-86
2023/01/03 13:26:24;;;;;;;6.47;4.67;;;8.00;99.90;;;;;;6240098;23;20226;-85
2023/01/03 13:28:51;;;;;;;6.83;4.90;;;7.70;28.30;;;;;;6242023;23;20431;-85
2023/01/03 13:31:39;;;;;;;6.43;5.13;;;7.70;90.00;;;;;;6233702;23;20389;-87
2023/01/03 13:34:34;;;;;;;4.10;3.80;;;7.70;99.90;;;;;;6231581;23;20467;-87
2023/01/03 13:37:16;;;;;;;3.78;3.47;;;7.60;99.90;;;;;;6164226;23;20180;-87
2023/01/03 13:40:02;;;;;;;5.20;4.22;;;7.30;66.10;;;;;;6234279;23;20226;-87
2023/01/03 13:42:31;;;;;;;4.75;4.10;;;7.30;1.00;;;;;;6234532;23;20191;-87
2023/01/03 13:45:35;;;;;;;6.60;4.55;;;7.10;99.90;;;;;;6234024;23;20190;-87
2023/01/03 13:48:20;;;;;;;5.18;4.20;;;7.30;99.90;;;;;;6234032;23;20199;-87
2023/01/03 13:51:06;;;;;;;5.90;4.50;;;7.00;99.90;;;;;;6238505;23;20163;-87
2023/01/03 13:53:37;;;;;;;6.55;4.38;;;7.20;99.90;;;;;;6235132;23;20213;-87
2023/01/03 13:56:21;;;;;;;6.70;4.47;;;7.20;99.90;;;;;;6234616;23;20164;-86
2023/01/03 13:58:52;;;;;;;7.63;5.63;;;7.20;99.90;;;;;;6234412;23;20270;-87
2023/01/03 14:01:29;;;;;;;6.30;4.82;;;7.20;99.90;;;;;;6233577;23;20163;-84
2023/01/03 14:04:22;;;;;;;7.20;5.07;;;7.10;99.90;;;;;;6234647;23;20163;-84
2023/01/03 14:07:09;;;;;;;10.15;6.20;;;7.00;1.00;;;;;;6240933;23;20159;-84
2023/01/03 14:10:02;;;;;;;7.35;4.95;;;7.10;99.90;;;;;;6243360;23;20202;-85
2023/01/03 14:13:04;;;;;;;5.70;5.15;;;6.90;99.90;;;;;;6238607;23;20183;-85
2023/01/03 14:15:32;;;;;;;10.55;5.68;;;6.90;99.90;;;;;;6213311;23;20219;-86
2023/01/03 14:18:07;;;;;;;6.55;5.65;;;6.30;99.90;;;;;;6231552;23;20203;-86
2023/01/03 14:20:37;;;;;;;5.07;4.55;;;7.00;99.90;;;;;;6233434;23;20162;-86
2023/01/03 14:23:08;;;;;;;7.85;5.75;;;6.90;99.90;;;;;;6238565;23;20199;-86